Time;durP1;ratioP1;P1;durP2;ratioP2;P2;SDS_P1;SDS_P2;PMS_P1;PMS_P2;Temp;Humidity;BMP_temperature;BMP_pressure;BME280_temperature;BME280_humidity;BME280_pressure;Samples;Min_cycle;Max_cycle;Signal;HPM_P1;HPM_P2
2023/09/20 00:00:35;;;;;;;0.30;0.30;;;;;;;16.05;100.00;98066.00;5075587;28;20032;-77
2023/09/20 00:03:01;;;;;;;0.30;0.30;;;;;;;16.08;100.00;98052.97;5059409;28;20058;-78
2023/09/20 00:05:27;;;;;;;0.30;0.30;;;;;;;16.10;100.00;98076.00;5059617;28;20475;-78
2023/09/20 00:07:56;;;;;;;0.38;0.38;;;;;;;16.12;100.00;98067.63;5059500;28;20035;-79
2023/09/20 00:10:23;;;;;;;0.30;0.30;;;;;;;16.12;100.00;98056.78;5075791;28;20075;-78
2023/09/20 00:12:49;;;;;;;0.20;0.20;;;;;;;16.11;100.00;98047.00;5059128;28;20502;-78
2023/09/20 00:15:17;;;;;;;0.30;0.30;;;;;;;16.08;100.00;98053.78;5075566;28;20032;-78
2023/09/20 00:17:43;;;;;;;0.20;0.20;;;;;;;16.09;100.00;98063.56;5075602;28;20461;-78
2023/09/20 00:20:12;;;;;;;0.32;0.32;;;;;;;16.07;100.00;98060.31;5075808;28;20123;-79
2023/09/20 00:22:43;;;;;;;0.30;0.30;;;;;;;16.02;100.00;98063.03;5059180;28;20033;-78
2023/09/20 00:25:10;;;;;;;0.30;0.30;;;;;;;15.98;100.00;98065.50;5042589;28;20032;-78
2023/09/20 00:27:38;;;;;;;0.30;0.30;;;;;;;15.95;100.00;98065.22;5026126;28;20556;-78
2023/09/20 00:30:10;;;;;;;0.30;0.30;;;;;;;15.89;100.00;98058.22;5026278;28;20063;-77
2023/09/20 00:32:40;;;;;;;0.20;0.20;;;;;;;15.81;100.00;98057.69;5042668;28;20044;-78
2023/09/20 00:35:10;;;;;;;0.30;0.30;;;;;;;15.80;100.00;98072.31;5042289;28;20036;-78
2023/09/20 00:37:41;;;;;;;0.30;0.30;;;;;;;15.79;100.00;98069.88;5059153;28;20054;-78
2023/09/20 00:40:15;;;;;;;0.30;0.30;;;;;;;15.74;100.00;98068.00;5042682;28;20486;-77
2023/09/20 00:42:42;;;;;;;0.30;0.30;;;;;;;15.69;100.00;98070.75;5059712;28;20127;-78
2023/09/20 00:45:09;;;;;;;0.30;0.30;;;;;;;15.60;100.00;98066.91;5075254;28;20040;-77
2023/09/20 00:47:40;;;;;;;0.30;0.30;;;;;;;15.61;100.00;98071.25;5058880;28;20071;-78
2023/09/20 00:50:10;;;;;;;0.30;0.30;;;;;;;15.60;100.00;98075.06;5057568;28;20078;-78
2023/09/20 00:52:39;;;;;;;0.30;0.30;;;;;;;15.58;100.00;98069.09;5026184;28;20048;-78
2023/09/20 00:55:08;;;;;;;0.38;0.38;;;;;;;15.53;100.00;98067.22;5043061;28;20028;-78
2023/09/20 00:57:33;;;;;;;0.20;0.20;;;;;;;15.51;100.00;98066.69;5074845;28;20498;-78
2023/09/20 00:59:59;;;;;;;0.40;0.40;;;;;;;15.48;100.00;98055.56;5058561;28;20041;-78
2023/09/20 01:02:25;;;;;;;0.30;0.30;;;;;;;15.46;100.00;98049.63;5074485;28;20021;-78
2023/09/20 01:04:51;;;;;;;0.30;0.30;;;;;;;15.40;100.00;98051.53;5074628;28;20103;-77
2023/09/20 01:07:18;;;;;;;0.30;0.30;;;;;;;15.38;100.00;98043.69;5057901;28;20119;-78
2023/09/20 01:09:47;;;;;;;0.40;0.40;;;;;;;15.32;100.00;98043.94;5058353;28;20072;-78
2023/09/20 01:12:13;;;;;;;0.30;0.30;;;;;;;15.30;100.00;98036.13;5041704;28;20032;-78
2023/09/20 01:14:39;;;;;;;0.30;0.30;;;;;;;15.31;100.00;98034.22;5041307;28;20086;-78
2023/09/20 01:17:07;;;;;;;0.30;0.30;;;;;;;15.32;100.00;98022.28;5058037;28;20033;-78
2023/09/20 01:19:34;;;;;;;0.30;0.30;;;;;;;15.31;100.00;98028.81;5041937;28;20452;-78
2023/09/20 01:21:59;;;;;;;0.30;0.30;;;;;;;15.30;100.00;98019.06;5074627;28;20064;-78
2023/09/20 01:24:27;;;;;;;0.30;0.30;;;;;;;15.29;100.00;98007.41;5041384;28;20017;-78
2023/09/20 01:26:55;;;;;;;0.30;0.30;;;;;;;15.30;100.00;98014.47;5041360;28;20033;-78
2023/09/20 01:29:21;;;;;;;0.30;0.30;;;;;;;15.32;100.00;98006.88;5073875;28;20033;-78
2023/09/20 01:31:47;;;;;;;0.30;0.30;;;;;;;15.31;100.00;97999.81;5040929;28;20071;-78
2023/09/20 01:34:13;;;;;;;0.25;0.25;;;;;;;15.30;100.00;97986.59;5057800;28;20387;-78
2023/09/20 01:36:40;;;;;;;0.30;0.30;;;;;;;15.32;100.00;97993.34;5057814;28;20123;-80
2023/09/20 01:39:08;;;;;;;0.20;0.20;;;;;;;15.33;100.00;97992.25;5074147;28;20425;-78
2023/09/20 01:41:34;;;;;;;0.30;0.30;;;;;;;15.31;100.00;97988.19;5057090;28;20044;-78
2023/09/20 01:44:00;;;;;;;0.30;0.30;;;;;;;15.30;100.00;98003.63;5073807;28;20029;-79
2023/09/20 01:46:25;;;;;;;0.30;0.30;;;;;;;15.32;100.00;97993.34;5057605;28;20058;-79
2023/09/20 01:48:53;;;;;;;0.30;0.30;;;;;;;15.33;100.00;97994.97;5073999;28;20029;-78
2023/09/20 01:51:19;;;;;;;0.30;0.30;;;;;;;15.30;100.00;97990.09;5040435;28;20028;-81
2023/09/20 01:53:45;;;;;;;0.30;0.30;;;;;;;15.29;100.00;97980.34;5073961;28;20459;-78
2023/09/20 01:56:11;;;;;;;0.40;0.40;;;;;;;15.29;100.00;97984.94;5073619;28;20103;-78
2023/09/20 01:58:37;;;;;;;0.30;0.30;;;;;;;15.29;100.00;97971.41;5040819;28;20032;-79
2023/09/20 02:01:03;;;;;;;0.30;0.30;;;;;;;15.32;100.00;97968.97;5057203;28;20106;-78
2023/09/20 02:03:31;;;;;;;0.30;0.30;;;;;;;15.33;100.00;97956.25;5057279;28;20115;-79
2023/09/20 02:05:58;;;;;;;0.20;0.20;;;;;;;15.33;100.00;97978.72;5057236;28;20392;-78
2023/09/20 02:08:25;;;;;;;0.30;0.30;;;;;;;15.28;100.00;97972.50;5073378;28;20028;-79
2023/09/20 02:10:51;;;;;;;0.30;0.30;;;;;;;15.22;100.00;97979.03;5073126;28;20029;-79
2023/09/20 02:13:18;;;;;;;0.30;0.30;;;;;;;15.14;100.00;97977.69;5057210;28;20040;-79
2023/09/20 02:15:44;;;;;;;0.30;0.30;;;;;;;15.09;100.00;97980.41;5073581;28;20036;-79
2023/09/20 02:18:10;;;;;;;0.30;0.30;;;;;;;14.99;100.00;97992.03;5073562;28;20037;-79
2023/09/20 02:20:37;;;;;;;0.22;0.22;;;;;;;15.00;100.00;97998.25;5056461;28;20433;-79
2023/09/20 02:23:05;;;;;;;0.28;0.28;;;;;;;14.78;100.00;98012.88;5057052;28;20047;-81
2023/09/20 02:25:30;;;;;;;0.30;0.30;;;;;;;14.43;100.00;98022.53;5057095;28;20123;-79
2023/09/20 02:27:58;;;;;;;0.30;0.30;;;;;;;14.15;100.00;98023.81;5056904;28;20078;-79
2023/09/20 02:30:27;;;;;;;0.30;0.30;;;;;;;13.93;100.00;98024.03;5072808;28;20028;-79
2023/09/20 02:32:54;;;;;;;0.30;0.30;;;;;;;13.81;100.00;98024.25;5073172;28;20098;-79
2023/09/20 02:35:21;;;;;;;0.22;0.22;;;;;;;13.74;100.00;98022.88;5056321;28;20052;-79
2023/09/20 02:37:48;;;;;;;0.20;0.20;;;;;;;13.75;100.00;98029.91;5074149;28;20540;-79
2023/09/20 02:40:14;;;;;;;0.30;0.30;;;;;;;13.78;100.00;98032.88;5056379;28;20028;-79
2023/09/20 02:42:58;;;;;;;0.25;0.25;;;;;;;13.71;100.00;98020.72;5056219;28;20483;-79
2023/09/20 02:45:25;;;;;;;3.50;0.73;;;;;;;13.56;100.00;98032.22;5073187;28;20033;-79
2023/09/20 02:47:52;;;;;;;3.33;1.10;;;;;;;13.48;100.00;98030.03;5039918;28;20032;-79
2023/09/20 02:50:22;;;;;;;12.30;2.45;;;;;;;13.51;100.00;98011.41;5039612;28;20127;-79
2023/09/20 02:52:49;;;;;;;2.95;1.20;;;;;;;13.59;100.00;98026.31;5072896;28;20386;-79
2023/09/20 02:55:17;;;;;;;3.90;1.40;;;;;;;13.52;100.00;98018.47;5072818;28;20078;-79
2023/09/20 02:57:49;;;;;;;3.08;1.48;;;;;;;13.39;100.00;98013.53;5023484;28;20045;-79
2023/09/20 03:00:16;;;;;;;4.10;1.55;;;;;;;13.33;100.00;98017.25;5056065;28;20036;-79
2023/09/20 03:02:45;;;;;;;4.18;1.60;;;;;;;13.26;100.00;98005.81;5073942;28;20032;-79
2023/09/20 03:05:31;;;;;;;1.02;0.75;;;;;;;13.18;100.00;98009.84;5039932;28;20106;-79
2023/09/20 03:07:57;;;;;;;9.95;1.27;;;;;;;13.19;100.00;98014.16;5055740;28;20039;-81
2023/09/20 03:10:25;;;;;;;2.30;0.80;;;;;;;13.22;100.00;98029.84;5055741;28;20029;-79
2023/09/20 03:12:52;;;;;;;2.13;1.00;;;;;;;13.27;100.00;98011.00;5071553;28;20372;-79
2023/09/20 03:15:23;;;;;;;9.23;1.33;;;;;;;13.32;100.00;98010.25;5039443;28;20036;-79
2023/09/20 03:17:53;;;;;;;9.88;1.00;;;;;;;13.23;100.00;98006.34;5056710;28;20461;-79
2023/09/20 03:20:22;;;;;;;0.90;0.55;;;;;;;13.23;100.00;98019.84;5055854;28;20526;-79
2023/09/20 03:22:54;;;;;;;2.40;0.85;;;;;;;13.27;100.00;98016.41;5040155;28;20044;-79
2023/09/20 03:25:21;;;;;;;10.10;1.67;;;;;;;13.34;100.00;98021.59;5039336;28;20177;-79
2023/09/20 03:27:48;;;;;;;2.53;1.10;;;;;;;13.34;100.00;98013.50;5055476;28;20032;-79
2023/09/20 03:30:14;;;;;;;6.25;1.10;;;;;;;13.40;100.00;98009.75;5072333;28;20036;-78
2023/09/20 03:32:42;;;;;;;4.20;0.98;;;;;;;13.47;100.00;98017.59;5039029;28;20036;-79
2023/09/20 03:35:10;;;;;;;6.88;1.08;;;;;;;13.48;100.00;98003.84;5056014;28;20036;-78
2023/09/20 03:37:40;;;;;;;2.33;1.30;;;;;;;13.44;100.00;98010.03;5056000;28;20043;-79
2023/09/20 03:40:10;;;;;;;4.90;0.88;;;;;;;13.34;100.00;98011.59;5040216;28;20551;-79
2023/09/20 03:42:40;;;;;;;2.38;0.90;;;;;;;13.32;100.00;98026.44;5056906;28;20055;-78
2023/09/20 03:45:10;;;;;;;6.45;1.30;;;;;;;13.32;100.00;98007.53;5055318;28;20033;-79
2023/09/20 03:47:40;;;;;;;7.07;1.40;;;;;;;13.33;100.00;98009.97;5072379;28;20040;-79
2023/09/20 03:50:09;;;;;;;3.45;1.17;;;;;;;13.26;100.00;98013.94;5055395;28;20033;-79
2023/09/20 03:52:42;;;;;;;11.48;2.33;;;;;;;13.27;100.00;98016.41;5055701;28;20474;-79
2023/09/20 03:55:08;;;;;;;9.43;1.98;;;;;;;13.29;100.00;98008.88;5056630;28;20043;-79
2023/09/20 03:57:34;;;;;;;7.07;1.33;;;;;;;13.30;100.00;98009.69;5055638;28;20127;-79
2023/09/20 04:00:00;;;;;;;7.75;1.38;;;;;;;13.33;100.00;98017.25;5071809;28;20067;-78
2023/09/20 04:02:28;;;;;;;20.08;3.45;;;;;;;13.32;100.00;98013.75;5071984;28;20481;-79
2023/09/20 04:04:55;;;;;;;26.65;5.93;;;;;;;13.30;100.00;98018.59;5055874;28;20047;-79
2023/09/20 04:07:26;;;;;;;11.13;2.13;;;;;;;13.31;100.00;98016.69;5072124;28;20459;-78
2023/09/20 04:09:52;;;;;;;15.32;2.67;;;;;;;13.28;100.00;98009.94;5039212;28;20045;-79
2023/09/20 04:12:18;;;;;;;9.15;1.60;;;;;;;13.20;100.00;98013.91;5071895;28;20033;-79
2023/09/20 04:14:46;;;;;;;9.60;1.70;;;;;;;13.20;100.00;98013.91;5055450;28;20040;-79
2023/09/20 04:17:12;;;;;;;8.20;1.35;;;;;;;13.21;100.00;98014.72;5073076;28;20071;-79
2023/09/20 04:19:42;;;;;;;8.85;1.38;;;;;;;13.18;100.00;98012.56;5055413;28;20115;-79
2023/09/20 04:22:08;;;;;;;6.53;1.83;;;;;;;13.20;100.00;98023.88;5039298;28;20038;-78
2023/09/20 04:24:34;;;;;;;12.07;2.35;;;;;;;13.19;100.00;98014.97;5057558;28;20080;-78
2023/09/20 04:27:02;;;;;;;5.40;1.77;;;;;;;13.19;100.00;98023.06;5075275;28;20471;-78
2023/09/20 04:29:31;;;;;;;8.93;1.33;;;;;;;13.17;100.00;98032.50;5058957;28;20398;-78
2023/09/20 04:31:57;;;;;;;7.93;1.50;;;;;;;13.15;100.00;98023.84;5042037;28;20028;-78
2023/09/20 04:34:23;;;;;;;11.68;1.90;;;;;;;12.95;100.00;98024.53;5075468;28;20040;-78
2023/09/20 04:36:51;;;;;;;13.73;2.20;;;;;;;12.61;100.00;98011.28;5042274;28;20032;-78
2023/09/20 04:39:17;;;;;;;11.43;2.08;;;;;;;12.44;100.00;98019.50;5075372;28;20047;-78
2023/09/20 04:41:42;;;;;;;8.60;1.35;;;;;;;12.29;100.00;98025.53;5075335;28;20036;-78
2023/09/20 04:44:08;;;;;;;9.63;1.58;;;;;;;12.22;100.00;98022.22;5075412;28;20082;-78
2023/09/20 04:46:39;;;;;;;10.68;1.83;;;;;;;12.20;100.00;98026.25;5058716;28;20035;-78
2023/09/20 04:49:08;;;;;;;12.45;1.60;;;;;;;12.14;100.00;98025.38;5058797;28;20028;-79
2023/09/20 04:51:34;;;;;;;10.52;2.90;;;;;;;12.19;100.00;98021.94;5074564;28;20029;-79
2023/09/20 04:53:59;;;;;;;12.52;1.98;;;;;;;12.21;100.00;98020.63;5075001;28;20128;-78
2023/09/20 04:56:27;;;;;;;10.10;1.95;;;;;;;12.32;100.00;98019.66;5074905;28;20040;-78
2023/09/20 04:58:53;;;;;;;8.45;2.53;;;;;;;12.34;100.00;98032.06;5074691;28;20056;-78
2023/09/20 05:01:19;;;;;;;5.32;1.10;;;;;;;12.26;100.00;98030.63;5058254;28;20041;-78
2023/09/20 05:03:50;;;;;;;6.78;1.50;;;;;;;12.29;100.00;98032.81;5058494;28;20036;-79
2023/09/20 05:06:19;;;;;;;12.00;2.08;;;;;;;12.28;100.00;98037.41;5074897;28;20042;-79
2023/09/20 05:08:45;;;;;;;5.70;1.23;;;;;;;12.26;100.00;98038.72;5041945;28;20032;-79
2023/09/20 05:11:11;;;;;;;9.65;1.75;;;;;;;12.22;100.00;98034.88;5057923;28;20379;-79
2023/09/20 05:13:38;;;;;;;11.85;1.80;;;;;;;12.16;100.00;98034.03;5058255;28;20036;-78
2023/09/20 05:16:04;;;;;;;8.55;1.85;;;;;;;12.12;100.00;98042.84;5074812;28;20567;-78
2023/09/20 05:18:30;;;;;;;9.25;2.20;;;;;;;12.05;100.00;98043.06;5058133;28;20123;-78
2023/09/20 05:20:55;;;;;;;6.50;1.20;;;;;;;12.01;100.00;98036.53;5041332;28;20086;-78
2023/09/20 05:23:21;;;;;;;9.38;1.35;;;;;;;12.02;100.00;98046.25;5041515;28;20382;-78
2023/09/20 05:25:48;;;;;;;6.00;1.08;;;;;;;12.03;100.00;98039.81;5074476;28;20534;-78
2023/09/20 05:28:15;;;;;;;8.48;1.45;;;;;;;11.98;100.00;98043.25;5057783;28;20115;-78
2023/09/20 05:30:47;;;;;;;6.82;1.20;;;;;;;11.88;100.00;98045.81;5057614;28;20108;-78
2023/09/20 05:33:13;;;;;;;7.03;1.30;;;;;;;11.90;100.00;98050.94;5058258;28;20036;-79
2023/09/20 05:35:39;;;;;;;11.48;1.42;;;;;;;11.98;100.00;98064.78;5040599;28;20475;-80
2023/09/20 05:38:09;;;;;;;8.13;1.58;;;;;;;12.03;100.00;98061.34;5057369;28;20391;-78
2023/09/20 05:40:35;;;;;;;8.20;1.92;;;;;;;12.04;100.00;98060.28;5041165;28;20124;-78
2023/09/20 05:43:04;;;;;;;5.10;1.50;;;;;;;11.84;100.00;98063.50;5040933;28;20500;-79
2023/09/20 05:45:31;;;;;;;8.93;1.50;;;;;;;11.70;100.00;98063.06;5058127;28;20036;-78
2023/09/20 05:47:58;;;;;;;8.07;1.42;;;;;;;11.72;100.00;98069.00;5024703;28;20033;-78
2023/09/20 05:50:33;;;;;;;5.20;1.00;;;;;;;11.79;100.00;98072.31;5041178;28;20036;-78
2023/09/20 05:53:06;;;;;;;7.13;1.40;;;;;;;11.97;100.00;98084.72;5058032;28;20433;-78
2023/09/20 05:55:38;;;;;;;11.23;1.75;;;;;;;11.96;100.00;98088.47;5041026;28;20029;-78
2023/09/20 05:58:04;;;;;;;9.17;1.30;;;;;;;11.83;100.00;98086.13;5074062;28;20036;-78
2023/09/20 06:00:30;;;;;;;13.00;1.77;;;;;;;11.72;100.00;98095.09;5056887;28;20601;-78
2023/09/20 06:02:59;;;;;;;9.02;1.42;;;;;;;11.58;100.00;98091.97;5057100;28;20039;-79
2023/09/20 06:05:26;;;;;;;6.55;1.27;;;;;;;11.43;100.00;98097.91;5041308;28;20098;-79
2023/09/20 06:07:53;;;;;;;9.18;1.70;;;;;;;11.24;100.00;98086.63;5040322;28;20536;-79
2023/09/20 06:10:19;;;;;;;11.40;1.83;;;;;;;11.16;100.00;98087.03;5056759;28;20067;-78
2023/09/20 06:12:46;;;;;;;7.20;0.95;;;;;;;11.07;100.00;98104.66;5040368;28;20048;-79
2023/09/20 06:15:15;;;;;;;9.35;1.40;;;;;;;11.01;100.00;98103.75;5040490;28;20024;-78
2023/09/20 06:17:44;;;;;;;4.72;1.13;;;;;;;10.99;100.00;98097.78;5057162;28;20040;-79
2023/09/20 06:20:18;;;;;;;5.57;1.35;;;;;;;11.00;100.00;98110.16;5040989;28;20032;-78
2023/09/20 06:22:46;;;;;;;9.43;1.52;;;;;;;11.04;100.00;98119.38;5042472;28;20029;-78
2023/09/20 06:25:21;;;;;;;6.82;1.27;;;;;;;11.09;100.00;98114.09;5057558;28;20036;-78
2023/09/20 06:27:53;;;;;;;10.88;1.45;;;;;;;11.19;100.00;98121.50;5057298;28;20090;-78
2023/09/20 06:30:22;;;;;;;9.18;1.30;;;;;;;11.28;100.00;98130.00;5057310;28;20037;-78
2023/09/20 06:32:49;;;;;;;8.40;1.65;;;;;;;11.29;100.00;98127.03;5073240;28;20024;-79
2023/09/20 06:35:15;;;;;;;6.97;1.08;;;;;;;11.29;100.00;98137.00;5039967;28;20071;-78
2023/09/20 06:37:45;;;;;;;8.93;1.65;;;;;;;11.25;100.00;98134.00;5040204;28;20036;-78
2023/09/20 06:40:22;;;;;;;10.95;1.17;;;;;;;11.26;100.00;98127.53;5072790;28;20056;-78
2023/09/20 06:42:51;;;;;;;8.52;1.27;;;;;;;11.32;100.00;98148.06;5057873;28;20101;-78
2023/09/20 06:45:17;;;;;;;6.90;1.60;;;;;;;11.42;100.00;98140.16;5023856;28;20039;-79
2023/09/20 06:47:44;;;;;;;7.05;1.05;;;;;;;11.52;100.00;98141.41;5022128;28;20067;-80
2023/09/20 06:50:12;;;;;;;9.55;0.98;;;;;;;11.50;100.00;98143.50;5056089;28;20025;-79
2023/09/20 06:52:46;;;;;;;5.10;1.02;;;;;;;11.44;100.00;98139.94;5056172;28;20033;-79
2023/09/20 06:55:13;;;;;;;3.20;0.95;;;;;;;11.37;100.00;98150.03;5041553;28;20041;-79
2023/09/20 06:57:39;;;;;;;6.28;1.20;;;;;;;11.31;100.00;98157.22;5072244;28;20475;-79
2023/09/20 07:00:19;;;;;;;6.40;1.20;;;;;;;11.27;100.00;98158.75;5072782;28;20067;-79
2023/09/20 07:02:46;;;;;;;8.80;1.13;;;;;;;11.22;100.00;98166.75;5041515;28;20041;-79
2023/09/20 07:05:13;;;;;;;11.45;1.70;;;;;;;11.40;100.00;98168.38;5056154;28;20028;-79
2023/09/20 07:07:39;;;;;;;9.30;1.70;;;;;;;11.47;100.00;98169.03;5072078;28;20543;-79
2023/09/20 07:10:06;;;;;;;6.72;1.15;;;;;;;11.53;100.00;98170.72;5072188;28;20059;-79
2023/09/20 07:12:38;;;;;;;4.85;1.38;;;;;;;11.71;100.00;98169.66;5072168;28;20468;-78
2023/09/20 07:15:06;;;;;;;5.35;0.98;;;;;;;12.17;100.00;98170.38;5040293;28;20415;-79
2023/09/20 07:17:32;;;;;;;10.25;1.38;;;;;;;12.31;100.00;98184.28;5039488;28;20041;-79
2023/09/20 07:19:58;;;;;;;11.18;1.52;;;;;;;12.14;100.00;98176.22;5039655;28;20037;-79
2023/09/20 07:22:24;;;;;;;7.35;1.50;;;;;;;11.95;100.00;98181.09;5055928;28;20036;-79
2023/09/20 07:24:54;;;;;;;4.93;0.90;;;;;;;11.87;100.00;98184.19;5072410;28;20031;-79
2023/09/20 07:27:20;;;;;;;7.55;1.48;;;;;;;11.87;100.00;98187.69;5072100;28;20029;-79
2023/09/20 07:29:46;;;;;;;8.18;1.52;;;;;;;11.96;100.00;98198.06;5055737;28;20048;-78
2023/09/20 07:32:15;;;;;;;5.90;1.33;;;;;;;11.79;100.00;98189.97;5072082;28;20031;-79
2023/09/20 07:34:41;;;;;;;9.13;1.90;;;;;;;11.60;100.00;98194.81;5072349;28;20024;-78
2023/09/20 07:37:07;;;;;;;8.52;1.83;;;;;;;11.71;100.00;98198.47;5072048;28;20387;-78
2023/09/20 07:39:33;;;;;;;8.65;1.70;;;;;;;12.16;100.00;98198.34;5072021;28;20029;-80
2023/09/20 07:41:59;;;;;;;12.13;1.45;;;;;;;13.00;100.00;98204.47;5039199;28;20047;-78
2023/09/20 07:44:30;;;;;;;4.10;1.17;;;;;;;13.43;100.00;98210.84;5055784;28;20033;-78
2023/09/20 07:46:59;;;;;;;4.05;1.15;;;;;;;13.12;100.00;98213.22;5072388;28;20037;-78
2023/09/20 07:49:25;;;;;;;4.35;1.10;;;;;;;12.93;100.00;98220.84;5055441;28;20055;-78
2023/09/20 07:51:54;;;;;;;7.13;1.48;;;;;;;13.18;100.00;98223.81;5071900;28;20471;-79
2023/09/20 07:54:20;;;;;;;4.05;1.38;;;;;;;13.46;100.00;98223.81;5072129;28;20028;-79
2023/09/20 07:56:52;;;;;;;5.60;1.27;;;;;;;13.90;100.00;98221.75;5072198;28;20489;-78
2023/09/20 07:59:26;;;;;;;6.88;1.60;;;;;;;14.22;100.00;98221.69;5058200;28;20056;-80
2023/09/20 08:01:53;;;;;;;7.75;1.35;;;;;;;15.75;100.00;98232.19;5060149;28;20037;-79
2023/09/20 08:04:19;;;;;;;8.23;1.98;;;;;;;16.17;100.00;98228.34;5059422;28;20032;-79
2023/09/20 08:06:44;;;;;;;10.05;1.58;;;;;;;14.72;100.00;98223.03;5075851;28;20028;-79
2023/09/20 08:09:10;;;;;;;4.22;0.98;;;;;;;15.02;100.00;98231.50;5075735;28;20032;-79
2023/09/20 08:11:37;;;;;;;6.50;1.48;;;;;;;15.79;100.00;98237.84;5059013;28;20475;-79
2023/09/20 08:14:03;;;;;;;2.75;1.48;;;;;;;15.50;100.00;98238.34;5059358;28;20075;-79
2023/09/20 08:16:33;;;;;;;4.55;1.25;;;;;;;15.45;100.00;98246.47;5075367;28;20043;-79
2023/09/20 08:21:34;;;;;;;6.32;1.42;;;;;;;15.39;100.00;98234.81;5075727;28;20047;-78
2023/09/20 09:00:27;;;;;;;5.55;1.23;;;;;;;16.24;100.00;98274.94;5061156;28;20025;-79
2023/09/20 09:03:03;;;;;;;8.85;1.33;;;;;;;15.65;100.00;98278.19;5074646;28;20035;-78
2023/09/20 09:05:29;;;;;;;5.28;1.02;;;;;;;15.18;100.00;98285.41;5058133;28;20088;-79
2023/09/20 09:07:56;;;;;;;8.13;1.17;;;;;;;16.15;100.00;98289.34;5041449;28;20040;-79
2023/09/20 09:10:22;;;;;;;5.43;1.17;;;;;;;17.52;100.00;98293.50;5040795;28;20081;-79
2023/09/20 09:12:48;;;;;;;6.53;1.10;;;;;;;16.84;100.00;98277.81;5058051;28;20111;-79
2023/09/20 09:15:16;;;;;;;9.80;2.10;;;;;;;17.04;100.00;98289.66;5074263;28;20032;-79
2023/09/20 09:17:47;;;;;;;6.88;1.33;;;;;;;16.07;100.00;98295.31;5058216;28;20032;-78
2023/09/20 09:20:15;;;;;;;4.28;1.40;;;;;;;16.62;100.00;98293.63;5041442;28;20039;-79
2023/09/20 09:22:42;;;;;;;4.82;1.40;;;;;;;18.20;100.00;98295.44;5057802;28;20029;-80
2023/09/20 09:25:12;;;;;;;4.03;1.35;;;;;;;19.61;100.00;98302.53;5074385;28;20043;-78
2023/09/20 09:27:39;;;;;;;2.72;1.40;;;;;;;19.06;100.00;98297.56;5074514;28;20032;-79
2023/09/20 09:30:18;;;;;;;2.47;0.85;;;;;;;17.96;100.00;98298.09;5041173;28;20125;-77
2023/09/20 09:32:47;;;;;;;4.60;1.00;;;;;;;16.31;100.00;98325.41;5054639;28;20072;-77
2023/09/20 09:35:18;;;;;;;2.20;0.93;;;;;;;15.42;100.00;98324.75;5058217;28;20041;-79
2023/09/20 09:37:44;;;;;;;4.97;0.80;;;;;;;14.19;100.00;98332.19;5058232;28;20426;-78
2023/09/20 09:40:12;;;;;;;0.85;0.50;;;;;;;13.13;100.00;98326.28;5040805;28;20093;-79
2023/09/20 09:42:39;;;;;;;1.67;0.60;;;;;;;12.19;100.00;98337.94;5073814;28;20037;-78
2023/09/20 09:45:06;;;;;;;2.22;0.43;;;;;;;11.82;100.00;98341.06;5057493;28;20055;-78
2023/09/20 09:47:35;;;;;;;1.75;0.80;;;;;;;11.74;100.00;98338.78;5057713;28;20033;-78
2023/09/20 09:50:03;;;;;;;5.28;0.70;;;;;;;11.65;100.00;98337.53;5057384;28;20039;-78
2023/09/20 09:52:30;;;;;;;2.83;0.77;;;;;;;11.66;100.00;98337.28;5056967;28;20089;-79
2023/09/20 09:54:56;;;;;;;0.55;0.55;;;;;;;11.72;100.00;98346.25;5056910;28;20039;-78
2023/09/20 09:57:23;;;;;;;1.33;0.70;;;;;;;11.88;100.00;98347.38;5057315;28;20032;-80
2023/09/20 09:59:50;;;;;;;2.05;0.60;;;;;;;13.50;100.00;98341.03;5057098;28;20130;-79
2023/09/20 10:02:17;;;;;;;0.73;0.60;;;;;;;13.15;100.00;98337.66;5040654;28;20163;-79
2023/09/20 10:04:49;;;;;;;3.60;1.20;;;;;;;12.81;100.00;98338.81;5040642;28;20028;-80
2023/09/20 10:07:19;;;;;;;1.08;0.80;;;;;;;14.04;100.00;98339.09;5073746;28;20033;-79
2023/09/20 10:09:49;;;;;;;3.67;0.75;;;;;;;15.85;100.00;98352.47;5074816;28;20036;-78
2023/09/20 10:12:16;;;;;;;2.33;0.70;;;;;;;14.48;100.00;98340.78;5040756;28;20024;-78
2023/09/20 10:14:43;;;;;;;6.68;1.20;;;;;;;13.66;100.00;98340.13;5056624;28;20413;-79
2023/09/20 10:17:15;;;;;;;2.40;0.73;;;;;;;13.19;100.00;98349.56;5023851;28;20036;-78
2023/09/20 10:19:41;;;;;;;1.50;0.77;;;;;;;12.98;100.00;98355.78;5073225;28;20036;-78
2023/09/20 10:22:13;;;;;;;0.75;0.63;;;;;;;13.06;100.00;98357.22;5040231;28;20036;-82
2023/09/20 10:24:50;;;;;;;2.58;0.70;;;;;;;14.14;100.00;98357.28;5040893;28;20120;-78
2023/09/20 10:27:17;;;;;;;2.88;1.20;;;;;;;16.76;100.00;98361.69;5056545;28;20481;-79
2023/09/20 10:30:09;;;;;;;2.13;0.60;;;;;;;17.16;100.00;98352.63;5056323;28;20082;-80
2023/09/20 10:32:59;;;;;;;3.53;0.90;;;;;;;15.18;100.00;98350.38;5040846;28;20040;-82
2023/09/20 10:35:39;;;;;;;2.15;0.60;;;;;;;14.44;100.00;98342.38;5044256;28;20078;-80
2023/09/20 10:38:08;;;;;;;1.88;0.60;;;;;;;14.02;100.00;98357.44;5056879;28;20040;-79
2023/09/20 10:40:46;;;;;;;5.78;0.80;;;;;;;13.99;100.00;98357.97;5056341;28;20394;-79
2023/09/20 10:43:17;;;;;;;3.00;0.77;;;;;;;14.80;100.00;98365.09;5072961;28;20455;-80
2023/09/20 10:45:50;;;;;;;2.42;0.85;;;;;;;16.75;100.00;98373.59;5040071;28;20042;-80
2023/09/20 10:48:26;;;;;;;6.43;1.27;;;;;;;17.72;100.00;98362.38;5056141;28;20032;-80
2023/09/20 10:50:58;;;;;;;3.83;1.25;;;;;;;17.66;100.00;98372.47;5039491;28;20097;-79
2023/09/20 10:53:47;;;;;;;1.70;0.93;;;;;;;17.55;100.00;98365.47;5056667;28;20032;-81
2023/09/20 10:56:50;;;;;;;2.13;1.13;;;;;;;16.80;100.00;98368.19;5055821;28;20273;-81
2023/09/20 10:59:25;;;;;;;0.93;0.80;;;;;;;15.70;100.00;98364.94;5072342;28;20463;-80
2023/09/20 11:02:02;;;;;;;1.52;0.73;;;;;;;14.92;100.00;98368.41;5039644;28;20067;-80
2023/09/20 11:04:30;;;;;;;1.95;0.60;;;;;;;15.24;100.00;98386.44;5056362;28;20502;-79
2023/09/20 11:06:59;;;;;;;2.03;0.88;;;;;;;15.50;100.00;98390.00;5073542;28;20520;-79
2023/09/20 11:09:30;;;;;;;3.20;1.33;;;;;;;14.98;100.00;98392.75;5039856;28;20539;-79
2023/09/20 11:12:06;;;;;;;1.60;0.65;;;;;;;14.15;100.00;98395.94;5056499;28;20064;-79
2023/09/20 11:14:40;;;;;;;1.67;0.90;;;;;;;13.36;100.00;98399.97;5057306;28;20025;-80
2023/09/20 11:17:06;;;;;;;3.65;0.93;;;;;;;13.04;100.00;98395.22;5039443;28;20033;-79
2023/09/20 11:19:33;;;;;;;0.63;0.63;;;;;;;14.25;100.00;98394.13;5039297;28;20077;-79
2023/09/20 11:21:59;;;;;;;6.05;2.15;;;;;;;15.44;100.00;98395.69;5055445;28;20032;-79
2023/09/20 11:24:26;;;;;;;3.72;1.02;;;;;;;16.07;100.00;98401.84;5039341;28;20123;-80
2023/09/20 11:26:54;;;;;;;2.88;1.00;;;;;;;16.44;100.00;98401.59;5039332;28;20040;-80
2023/09/20 11:29:19;;;;;;;1.70;0.73;;;;;;;16.71;100.00;98406.72;5039265;28;20044;-79
2023/09/20 11:31:45;;;;;;;3.83;1.10;;;;;;;16.79;100.00;98396.44;5072189;28;20028;-79
2023/09/20 11:34:12;;;;;;;3.42;1.10;;;;;;;17.07;100.00;98403.97;5038674;28;20036;-81
2023/09/20 11:36:43;;;;;;;5.80;1.10;;;;;;;17.58;100.00;98398.34;5055009;28;20068;-80
2023/09/20 11:39:08;;;;;;;3.40;1.02;;;;;;;18.18;100.00;98392.03;5039412;28;20028;-79
2023/09/20 11:41:35;;;;;;;3.58;0.90;;;;;;;18.24;100.00;98399.84;5071792;28;20025;-79
2023/09/20 11:44:02;;;;;;;2.45;0.98;;;;;;;17.49;100.00;98396.47;5072171;28;20043;-79
2023/09/20 11:46:30;;;;;;;4.43;1.40;;;;;;;16.87;100.00;98390.44;5055620;28;20028;-79
2023/09/20 11:48:58;;;;;;;7.00;1.48;;;;;;;17.02;100.00;98395.84;5038425;28;20044;-80
2023/09/20 11:51:24;;;;;;;4.10;1.13;;;;;;;15.71;100.00;98406.38;5071859;28;20483;-81
2023/09/20 11:53:51;;;;;;;1.15;0.50;;;;;;;13.79;100.00;98406.41;5055414;28;20025;-80
2023/09/20 11:56:29;;;;;;;1.73;0.40;;;;;;;12.69;100.00;98412.53;5038735;28;20469;-79
2023/09/20 11:58:59;;;;;;;1.30;0.43;;;;;;;12.39;100.00;98402.13;5071914;28;20063;-78
2023/09/20 12:01:29;;;;;;;1.13;0.50;;;;;;;12.47;100.00;98411.66;5072026;28;20060;-79
2023/09/20 12:03:58;;;;;;;2.65;0.88;;;;;;;12.66;100.00;98410.34;5055683;28;20399;-78
2023/09/20 12:06:26;;;;;;;1.77;0.52;;;;;;;12.87;100.00;98407.94;5055404;28;20036;-78
2023/09/20 12:08:54;;;;;;;2.28;0.88;;;;;;;13.14;100.00;98416.13;5039076;28;20123;-78